Time;durP1;ratioP1;P1;durP2;ratioP2;P2;SDS_P1;SDS_P2;PMS_P1;PMS_P2;Temp;Humidity;BMP_temperature;BMP_pressure;BME280_temperature;BME280_humidity;BME280_pressure;Samples;Min_cycle;Max_cycle;Signal;HPM_P1;HPM_P2
2023/01/21 00:00:49;;;;;;;0.10;0.10;;;0.80;99.90;;;;;;5012198;28;20242;-70
2023/01/21 00:03:15;;;;;;;0.00;0.00;;;0.80;99.90;;;;;;5012022;28;20317;-70
2023/01/21 00:05:40;;;;;;;0.10;0.10;;;0.70;99.90;;;;;;5011739;28;20174;-70
2023/01/21 00:08:06;;;;;;;0.00;0.00;;;0.70;99.90;;;;;;5012173;28;20214;-70
2023/01/21 00:10:32;;;;;;;0.00;0.00;;;0.70;99.90;;;;;;4993576;28;20189;-69
2023/01/21 00:12:57;;;;;;;0.00;0.00;;;0.70;99.90;;;;;;5011910;28;20638;-69
2023/01/21 00:15:23;;;;;;;0.00;0.00;;;0.70;99.90;;;;;;5011453;28;20250;-70
2023/01/21 00:17:51;;;;;;;0.10;0.10;;;0.70;99.90;;;;;;5011861;28;20195;-69
2023/01/21 00:20:17;;;;;;;0.20;0.20;;;0.70;99.90;;;;;;5011704;28;20277;-70
2023/01/21 00:22:42;;;;;;;0.47;0.47;;;0.70;99.90;;;;;;5011606;28;20641;-70
2023/01/21 00:25:08;;;;;;;0.67;0.27;;;0.70;99.90;;;;;;5011618;28;20633;-71
2023/01/21 00:27:34;;;;;;;0.20;0.13;;;0.60;99.90;;;;;;5011624;28;20190;-70
2023/01/21 00:29:59;;;;;;;0.00;0.00;;;0.60;99.90;;;;;;5011607;28;20213;-71
2023/01/21 00:32:25;;;;;;;0.00;0.00;;;0.50;99.90;;;;;;5011908;28;20182;-70
2023/01/21 00:34:50;;;;;;;0.10;0.10;;;0.60;99.90;;;;;;5011480;28;20218;-69
2023/01/21 00:37:16;;;;;;;0.00;0.00;;;0.50;99.90;;;;;;5011492;28;20179;-69
2023/01/21 00:39:41;;;;;;;0.00;0.00;;;0.50;99.90;;;;;;5011842;28;20187;-69
2023/01/21 00:42:10;;;;;;;0.00;0.00;;;0.40;99.90;;;;;;5011519;28;20205;-70
2023/01/21 00:44:37;;;;;;;0.00;0.00;;;0.40;99.90;;;;;;5011778;28;20257;-70
2023/01/21 00:47:03;;;;;;;0.00;0.00;;;0.40;99.90;;;;;;5011546;28;20186;-70
2023/01/21 00:49:28;;;;;;;0.50;0.50;;;0.30;99.90;;;;;;5011882;28;20190;-70
2023/01/21 00:51:54;;;;;;;0.10;0.10;;;0.30;99.90;;;;;;5010765;28;20191;-70
2023/01/21 00:54:19;;;;;;;0.00;0.00;;;0.30;99.90;;;;;;5011387;28;20214;-69
2023/01/21 00:56:45;;;;;;;0.00;0.00;;;0.20;99.90;;;;;;5010666;28;20182;-69
2023/01/21 00:59:10;;;;;;;0.00;0.00;;;0.20;99.90;;;;;;4993389;28;20187;-70
2023/01/21 01:01:37;;;;;;;1.50;0.30;;;0.30;99.90;;;;;;5011130;28;20191;-70
2023/01/21 01:04:04;;;;;;;0.00;0.00;;;0.20;99.90;;;;;;4996491;28;20179;-71
2023/01/21 01:06:30;;;;;;;0.20;0.20;;;0.20;99.90;;;;;;5011664;28;20266;-71
2023/01/21 01:08:59;;;;;;;0.00;0.00;;;0.20;99.90;;;;;;5011177;28;20356;-70
2023/01/21 01:11:26;;;;;;;0.00;0.00;;;0.10;99.90;;;;;;5011282;28;20183;-71
2023/01/21 01:13:53;;;;;;;0.03;0.03;;;0.20;99.90;;;;;;5011398;28;20206;-70
2023/01/21 01:16:19;;;;;;;0.00;0.00;;;0.10;99.90;;;;;;5010532;28;20258;-71
2023/01/21 01:18:45;;;;;;;0.00;0.00;;;0.10;99.90;;;;;;5011496;28;20190;-70
2023/01/21 01:21:13;;;;;;;0.00;0.00;;;0.10;99.90;;;;;;5006439;28;20195;-70
2023/01/21 01:23:39;;;;;;;0.00;0.00;;;0.10;99.90;;;;;;5014473;28;20745;-70
2023/01/21 01:26:08;;;;;;;0.00;0.00;;;0.10;99.90;;;;;;4998582;28;20278;-70
2023/01/21 01:28:34;;;;;;;0.77;0.30;;;0.10;99.90;;;;;;5000735;28;20197;-70
2023/01/21 01:31:00;;;;;;;0.00;0.00;;;0.10;99.90;;;;;;5014906;28;20179;-70
2023/01/21 01:33:26;;;;;;;0.40;0.40;;;0.00;99.90;;;;;;5014642;28;20237;-70
2023/01/21 01:35:52;;;;;;;0.00;0.00;;;0.10;99.90;;;;;;5014364;28;20186;-70
2023/01/21 01:38:20;;;;;;;0.00;0.00;;;0.10;99.90;;;;;;5014840;28;20175;-70
2023/01/21 01:40:47;;;;;;;0.13;0.13;;;0.00;99.90;;;;;;5014372;28;20179;-70
2023/01/21 01:43:18;;;;;;;0.30;0.30;;;0.00;99.90;;;;;;5014881;28;20175;-70
2023/01/21 01:45:44;;;;;;;0.00;0.00;;;0.00;99.90;;;;;;4996989;28;20179;-70
2023/01/21 01:48:30;;;;;;;0.10;0.10;;;-0.10;99.90;;;;;;5014622;28;20186;-71
2023/01/21 01:50:59;;;;;;;0.00;0.00;;;0.00;99.90;;;;;;5014290;28;20529;-70
2023/01/21 01:53:25;;;;;;;0.10;0.10;;;-0.10;99.90;;;;;;5014301;28;20731;-70
2023/01/21 01:55:51;;;;;;;0.40;0.40;;;-0.10;99.90;;;;;;5014261;28;20175;-70
2023/01/21 01:58:19;;;;;;;0.10;0.10;;;-0.10;99.90;;;;;;5014232;28;20183;-70
2023/01/21 02:00:45;;;;;;;0.00;0.00;;;-0.10;99.90;;;;;;5014266;28;20199;-70
2023/01/21 02:05:55;;;;;;;0.40;0.40;;;-0.10;99.90;;;;;;5013680;28;20719;-70
2023/01/21 02:08:22;;;;;;;0.10;0.10;;;-0.10;99.90;;;;;;5014067;28;20179;-70
2023/01/21 02:10:48;;;;;;;0.23;0.23;;;-0.10;99.90;;;;;;4995814;28;20277;-70
2023/01/21 02:13:14;;;;;;;0.10;0.10;;;-0.10;99.90;;;;;;5014310;28;20265;-70
2023/01/21 02:16:02;;;;;;;0.20;0.20;;;-0.10;99.90;;;;;;5013345;28;20226;-70
2023/01/21 02:18:36;;;;;;;0.00;0.00;;;-0.10;99.90;;;;;;4999607;28;20171;-70
2023/01/21 02:21:23;;;;;;;0.00;0.00;;;-0.10;99.90;;;;;;4994422;28;20191;-70
2023/01/21 02:24:10;;;;;;;0.00;0.00;;;-0.10;99.90;;;;;;5010841;28;20182;-70
2023/01/21 02:26:56;;;;;;;0.00;0.00;;;-0.20;99.90;;;;;;4995452;28;20689;-69
2023/01/21 02:29:36;;;;;;;0.00;0.00;;;-0.20;99.90;;;;;;5013697;28;20198;-69
2023/01/21 02:32:04;;;;;;;0.20;0.20;;;-0.20;99.90;;;;;;4993884;28;20191;-70
2023/01/21 02:34:52;;;;;;;0.40;0.40;;;-0.30;99.90;;;;;;5004880;28;20229;-69
2023/01/21 02:37:41;;;;;;;0.10;0.10;;;-0.30;99.90;;;;;;5013886;28;20539;-70
2023/01/21 02:40:34;;;;;;;0.00;0.00;;;-0.30;99.90;;;;;;5013579;28;20214;-69
2023/01/21 02:43:17;;;;;;;0.00;0.00;;;-0.40;99.90;;;;;;5013498;28;20182;-69
2023/01/21 02:45:49;;;;;;;0.00;0.00;;;-0.50;99.90;;;;;;5012770;28;20178;-69
2023/01/21 02:48:27;;;;;;;0.10;0.10;;;-0.50;99.90;;;;;;5013545;28;20281;-70
2023/01/21 02:50:53;;;;;;;0.00;0.00;;;-0.60;99.90;;;;;;5013239;28;20201;-70
2023/01/21 02:53:33;;;;;;;0.50;0.40;;;-0.60;99.90;;;;;;5012860;28;20199;-70
2023/01/21 02:56:08;;;;;;;0.03;0.03;;;-0.70;99.90;;;;;;5013007;28;20187;-69
2023/01/21 02:58:38;;;;;;;0.07;0.07;;;-0.80;99.90;;;;;;5013115;28;20278;-70
2023/01/21 03:01:14;;;;;;;0.00;0.00;;;-0.90;99.90;;;;;;5012737;28;20210;-70
2023/01/21 03:04:29;;;;;;;2.43;0.67;;;-0.90;99.90;;;;;;5013198;28;20183;-70
2023/01/21 03:07:12;;;;;;;0.10;0.10;;;-1.00;99.90;;;;;;5007443;28;20555;-70
2023/01/21 03:09:38;;;;;;;0.17;0.17;;;-1.00;99.90;;;;;;5012944;28;20266;-70
2023/01/21 03:12:29;;;;;;;0.00;0.00;;;-1.10;99.90;;;;;;5012528;28;20262;-70
2023/01/21 03:17:59;;;;;;;0.00;0.00;;;-1.10;99.90;;;;;;5012960;28;20270;-69
2023/01/21 03:20:33;;;;;;;0.00;0.00;;;-1.20;99.90;;;;;;5012489;28;20186;-69
2023/01/21 03:23:05;;;;;;;0.13;0.13;;;-1.20;99.90;;;;;;5011966;28;20309;-70
2023/01/21 03:25:32;;;;;;;0.10;0.10;;;-1.20;99.90;;;;;;5012026;28;20283;-70
2023/01/21 03:28:02;;;;;;;0.00;0.00;;;-1.20;99.90;;;;;;4997505;28;20259;-70
2023/01/21 03:30:30;;;;;;;0.00;0.00;;;-1.20;99.90;;;;;;5012817;28;20240;-70
2023/01/21 03:32:57;;;;;;;0.47;0.40;;;-1.20;99.90;;;;;;5012669;28;20241;-69
2023/01/21 03:35:28;;;;;;;0.00;0.00;;;-1.20;99.90;;;;;;5011153;28;20194;-70
2023/01/21 03:37:53;;;;;;;0.30;0.30;;;-1.30;99.90;;;;;;5011958;28;20560;-71
2023/01/21 03:40:21;;;;;;;0.00;0.00;;;-1.30;99.90;;;;;;5011333;28;20183;-70
2023/01/21 03:42:49;;;;;;;0.37;0.37;;;-1.40;99.90;;;;;;5012533;28;20714;-68
2023/01/21 03:45:17;;;;;;;0.67;0.63;;;-1.40;99.90;;;;;;5011101;28;20225;-71
2023/01/21 03:47:49;;;;;;;0.10;0.10;;;-1.40;99.90;;;;;;5012568;28;20179;-71
2023/01/21 03:50:40;;;;;;;0.00;0.00;;;-1.40;99.90;;;;;;5012354;28;20273;-70
2023/01/21 03:53:06;;;;;;;0.00;0.00;;;-1.50;99.90;;;;;;5003574;28;20693;-69
2023/01/21 03:55:33;;;;;;;0.30;0.30;;;-1.50;99.90;;;;;;5012426;28;20266;-70
2023/01/21 03:57:59;;;;;;;0.00;0.00;;;-1.50;99.90;;;;;;5012074;28;20215;-70
2023/01/21 04:00:26;;;;;;;0.20;0.13;;;-1.50;99.90;;;;;;5012324;28;20294;-70
2023/01/21 04:02:51;;;;;;;0.20;0.20;;;-1.50;99.90;;;;;;5012022;28;20261;-70
2023/01/21 04:05:17;;;;;;;0.20;0.20;;;-1.60;99.90;;;;;;5012285;28;20210;-70
2023/01/21 04:07:42;;;;;;;0.00;0.00;;;-1.60;99.90;;;;;;5012016;28;20248;-70
2023/01/21 04:10:09;;;;;;;0.13;0.13;;;-1.70;99.90;;;;;;5011841;28;20236;-70
2023/01/21 04:12:34;;;;;;;0.00;0.00;;;-1.70;99.90;;;;;;5012258;28;20248;-70
2023/01/21 04:15:00;;;;;;;0.33;0.33;;;-1.80;99.90;;;;;;5011518;28;20721;-70
2023/01/21 04:17:27;;;;;;;0.07;0.07;;;-1.90;99.90;;;;;;5012269;28;20182;-70
2023/01/21 04:19:52;;;;;;;0.00;0.00;;;-1.90;99.90;;;;;;5011829;28;20233;-70
2023/01/21 04:22:19;;;;;;;0.00;0.00;;;-1.90;99.90;;;;;;5011924;28;20183;-70
2023/01/21 04:24:45;;;;;;;0.00;0.00;;;-2.00;99.90;;;;;;5011813;28;20262;-70
2023/01/21 04:27:10;;;;;;;0.10;0.10;;;-2.10;99.90;;;;;;5011751;28;20302;-70
2023/01/21 04:29:36;;;;;;;0.00;0.00;;;-2.10;99.90;;;;;;5011619;28;20656;-71
2023/01/21 04:32:02;;;;;;;0.07;0.07;;;-2.20;99.90;;;;;;5011005;28;20178;-70
2023/01/21 04:34:27;;;;;;;0.00;0.00;;;-2.20;99.90;;;;;;5011242;28;20218;-70
2023/01/21 04:36:52;;;;;;;0.00;0.00;;;-2.30;99.90;;;;;;5011304;28;20194;-70
2023/01/21 04:39:18;;;;;;;0.00;0.00;;;-2.40;99.90;;;;;;5011338;28;20193;-70
2023/01/21 04:41:44;;;;;;;0.37;0.37;;;-2.40;99.90;;;;;;5008574;28;20178;-70
2023/01/21 04:44:09;;;;;;;0.00;0.00;;;-2.50;99.90;;;;;;5011811;28;20175;-70
2023/01/21 04:46:35;;;;;;;0.10;0.10;;;-2.50;99.90;;;;;;5011392;28;20236;-70
2023/01/21 04:49:00;;;;;;;0.00;0.00;;;-2.50;99.90;;;;;;5011652;28;20210;-71
2023/01/21 04:51:26;;;;;;;0.00;0.00;;;-2.60;99.90;;;;;;5011593;28;20225;-71
2023/01/21 04:53:51;;;;;;;0.00;0.00;;;-2.60;99.90;;;;;;5011268;28;20569;-71
2023/01/21 04:56:17;;;;;;;0.00;0.00;;;-2.60;99.90;;;;;;5014115;28;20186;-71
2023/01/21 04:58:42;;;;;;;0.00;0.00;;;-2.60;99.90;;;;;;5015346;28;20181;-71
2023/01/21 05:01:08;;;;;;;0.10;0.10;;;-2.60;99.90;;;;;;4997850;28;20193;-71
2023/01/21 05:03:33;;;;;;;0.47;0.47;;;-2.60;99.90;;;;;;5015119;28;20186;-71
2023/01/21 05:05:59;;;;;;;0.00;0.00;;;-2.50;99.90;;;;;;5015311;28;20193;-72
2023/01/21 05:08:24;;;;;;;0.00;0.00;;;-2.60;99.90;;;;;;4997567;28;20261;-71
2023/01/21 05:10:50;;;;;;;0.10;0.10;;;-2.50;99.90;;;;;;5015179;28;20257;-71
2023/01/21 05:13:15;;;;;;;0.10;0.10;;;-2.50;99.90;;;;;;5014885;28;20178;-71
2023/01/21 05:15:41;;;;;;;0.10;0.10;;;-2.50;99.90;;;;;;5014701;28;20226;-71
2023/01/21 05:18:06;;;;;;;0.00;0.00;;;-2.50;99.90;;;;;;4997597;28;20191;-71
2023/01/21 05:20:32;;;;;;;0.00;0.00;;;-2.50;99.90;;;;;;5014898;28;20183;-71
2023/01/21 05:22:57;;;;;;;0.27;0.27;;;-2.50;99.90;;;;;;5014517;28;20535;-71
2023/01/21 05:25:23;;;;;;;0.00;0.00;;;-2.50;99.90;;;;;;4994016;28;20195;-71
2023/01/21 05:27:53;;;;;;;0.00;0.00;;;-2.50;99.90;;;;;;5008116;28;20218;-71
2023/01/21 05:30:19;;;;;;;0.00;0.00;;;-2.50;99.90;;;;;;5015127;28;20277;-72
2023/01/21 05:32:49;;;;;;;0.00;0.00;;;-2.40;99.90;;;;;;5014838;28;20237;-71
2023/01/21 05:35:17;;;;;;;0.20;0.20;;;-2.50;99.90;;;;;;5014698;28;20222;-71
2023/01/21 05:37:43;;;;;;;0.00;0.00;;;-2.50;99.90;;;;;;5014472;28;20701;-71
2023/01/21 05:40:09;;;;;;;0.00;0.00;;;-2.50;99.90;;;;;;5014295;28;20281;-71
2023/01/21 05:42:35;;;;;;;0.10;0.10;;;-2.40;99.90;;;;;;5013662;28;20183;-71
2023/01/21 05:45:00;;;;;;;0.00;0.00;;;-2.40;99.90;;;;;;5005117;28;20256;-71
2023/01/21 05:47:26;;;;;;;0.20;0.20;;;-2.40;99.90;;;;;;5014747;28;20186;-71
2023/01/21 05:49:51;;;;;;;1.60;1.03;;;-2.30;99.90;;;;;;5014322;28;20175;-71
2023/01/21 05:52:17;;;;;;;0.00;0.00;;;-2.30;99.90;;;;;;5014633;28;20681;-70
2023/01/21 05:54:42;;;;;;;0.10;0.10;;;-2.30;99.90;;;;;;5013739;28;20294;-70
2023/01/21 05:57:08;;;;;;;0.00;0.00;;;-2.30;99.90;;;;;;5014176;28;20325;-71
2023/01/21 05:59:33;;;;;;;0.30;0.30;;;-2.30;99.90;;;;;;5014117;28;20183;-71
2023/01/21 06:01:59;;;;;;;0.00;0.00;;;-2.30;99.90;;;;;;5013964;28;20634;-71
2023/01/21 06:04:29;;;;;;;0.10;0.10;;;-2.20;99.90;;;;;;5011380;28;20175;-71
2023/01/21 06:06:55;;;;;;;0.10;0.10;;;-2.20;99.90;;;;;;4993882;28;20215;-72
2023/01/21 06:09:20;;;;;;;0.13;0.13;;;-2.20;99.90;;;;;;5007908;28;20589;-71
2023/01/21 06:11:46;;;;;;;0.23;0.23;;;-2.20;99.90;;;;;;5014308;28;20182;-71
2023/01/21 06:14:11;;;;;;;0.30;0.30;;;-2.20;99.90;;;;;;5010748;28;20214;-71
2023/01/21 06:16:37;;;;;;;0.00;0.00;;;-2.20;99.90;;;;;;5008689;28;20216;-70
2023/01/21 06:19:02;;;;;;;0.10;0.10;;;-2.10;99.90;;;;;;4995520;28;20186;-70
2023/01/21 06:21:28;;;;;;;0.30;0.30;;;-2.10;99.90;;;;;;5005682;28;20197;-71
2023/01/21 06:23:53;;;;;;;0.00;0.00;;;-2.10;99.90;;;;;;4996146;28;20700;-71
2023/01/21 06:26:19;;;;;;;0.00;0.00;;;-2.10;99.90;;;;;;4985752;28;20266;-71
2023/01/21 06:28:44;;;;;;;0.00;0.00;;;-2.10;99.90;;;;;;4994347;28;20202;-70
2023/01/21 06:31:10;;;;;;;0.00;0.00;;;-2.10;99.90;;;;;;4994415;28;20179;-70
2023/01/21 06:33:35;;;;;;;0.00;0.00;;;-2.00;99.90;;;;;;5004812;28;20199;-71
2023/01/21 06:36:01;;;;;;;0.00;0.00;;;-2.00;99.90;;;;;;4995959;28;20293;-70
2023/01/21 06:38:27;;;;;;;0.00;0.00;;;-2.00;99.90;;;;;;5013660;28;20175;-71
2023/01/21 06:40:52;;;;;;;0.00;0.00;;;-2.00;99.90;;;;;;5013600;28;20561;-72
2023/01/21 06:43:18;;;;;;;0.00;0.00;;;-1.90;99.90;;;;;;5013723;28;20171;-72
2023/01/21 06:45:43;;;;;;;1.00;0.50;;;-1.90;99.90;;;;;;5013507;28;20379;-70
2023/01/21 06:48:09;;;;;;;0.97;0.97;;;-1.90;99.90;;;;;;5013155;28;20187;-71
2023/01/21 06:50:34;;;;;;;0.00;0.00;;;-2.00;99.90;;;;;;5010459;28;20187;-71
2023/01/21 06:53:00;;;;;;;0.00;0.00;;;-2.00;99.90;;;;;;5011953;28;20259;-72
2023/01/21 06:55:25;;;;;;;0.00;0.00;;;-2.00;99.90;;;;;;4995277;28;20210;-72
2023/01/21 06:57:51;;;;;;;0.30;0.30;;;-1.90;99.90;;;;;;5002355;28;20206;-71
2023/01/21 07:00:17;;;;;;;0.03;0.03;;;-1.90;99.90;;;;;;5013429;28;20537;-70
2023/01/21 07:02:43;;;;;;;0.00;0.00;;;-1.90;99.90;;;;;;4998127;28;20180;-71
2023/01/21 07:05:08;;;;;;;0.00;0.00;;;-1.90;99.90;;;;;;4993731;28;20183;-69
2023/01/21 07:07:34;;;;;;;0.00;0.00;;;-1.80;99.90;;;;;;4993501;28;20574;-72
2023/01/21 07:10:00;;;;;;;0.00;0.00;;;-1.80;99.90;;;;;;5002149;28;20270;-73
2023/01/21 07:12:25;;;;;;;0.00;0.00;;;-1.80;99.90;;;;;;5012875;28;20191;-67
2023/01/21 07:14:51;;;;;;;0.13;0.13;;;-1.80;99.90;;;;;;5011952;28;20217;-66
2023/01/21 07:17:16;;;;;;;0.00;0.00;;;-1.80;99.90;;;;;;5012496;28;20699;-73
2023/01/21 07:19:42;;;;;;;0.00;0.00;;;-1.70;99.90;;;;;;5011479;28;20183;-67
2023/01/21 07:22:07;;;;;;;0.00;0.00;;;-1.70;99.90;;;;;;4994690;28;20182;-68
2023/01/21 07:24:33;;;;;;;0.10;0.10;;;-1.70;99.90;;;;;;5012437;28;20205;-69
2023/01/21 07:26:59;;;;;;;0.40;0.40;;;-1.70;99.90;;;;;;5012184;28;20645;-66
2023/01/21 07:29:24;;;;;;;0.00;0.00;;;-1.70;99.90;;;;;;4993411;28;20253;-69
2023/01/21 07:31:50;;;;;;;0.10;0.10;;;-1.70;99.90;;;;;;4998824;28;20175;-68
2023/01/21 07:34:16;;;;;;;0.00;0.00;;;-1.70;99.90;;;;;;5012247;28;20217;-68
2023/01/21 07:36:42;;;;;;;0.00;0.00;;;-1.70;99.90;;;;;;5007546;28;20191;-65
2023/01/21 07:39:07;;;;;;;0.00;0.00;;;-1.70;99.90;;;;;;4997670;28;20176;-65
2023/01/21 07:41:33;;;;;;;0.00;0.00;;;-1.70;99.90;;;;;;5019569;28;20217;-66
2023/01/21 07:43:58;;;;;;;0.00;0.00;;;-1.70;99.90;;;;;;5012377;28;20179;-67
2023/01/21 07:46:25;;;;;;;0.07;0.07;;;-1.70;99.90;;;;;;5003524;28;20195;-65
2023/01/21 07:48:51;;;;;;;0.10;0.10;;;-1.70;99.90;;;;;;4992630;28;20297;-68
2023/01/21 07:51:20;;;;;;;0.00;0.00;;;-1.70;99.90;;;;;;4992693;28;20186;-66
2023/01/21 07:53:46;;;;;;;2.17;1.40;;;-1.60;99.90;;;;;;4994373;28;20261;-67
2023/01/21 07:56:12;;;;;;;0.00;0.00;;;-1.70;99.90;;;;;;5012345;28;20198;-66
2023/01/21 07:58:38;;;;;;;0.00;0.00;;;-1.60;99.90;;;;;;4994564;28;20190;-65
2023/01/21 08:01:08;;;;;;;0.00;0.00;;;-1.60;99.90;;;;;;5012240;28;20278;-66
2023/01/21 08:03:35;;;;;;;0.20;0.20;;;-1.60;99.90;;;;;;5012193;28;20596;-66
2023/01/21 08:06:01;;;;;;;0.00;0.00;;;-1.60;99.90;;;;;;5015546;28;20190;-67
2023/01/21 08:08:26;;;;;;;0.00;0.00;;;-1.60;99.90;;;;;;5031884;28;20178;-67
2023/01/21 08:10:53;;;;;;;0.07;0.07;;;-1.50;99.90;;;;;;5004804;28;20179;-68
2023/01/21 08:13:19;;;;;;;0.00;0.00;;;-1.50;99.90;;;;;;5011935;28;20533;-69
2023/01/21 08:15:52;;;;;;;0.10;0.10;;;-1.50;99.90;;;;;;5002638;28;20662;-68
2023/01/21 08:18:19;;;;;;;0.00;0.00;;;-1.50;99.90;;;;;;4992572;28;20207;-70
2023/01/21 08:20:45;;;;;;;0.00;0.00;;;-1.50;99.90;;;;;;5009091;28;20183;-70
2023/01/21 08:23:10;;;;;;;0.10;0.10;;;-1.50;99.90;;;;;;5000117;28;20942;-70
2023/01/21 08:25:36;;;;;;;0.00;0.00;;;-1.40;99.90;;;;;;4978007;28;20630;-70
2023/01/21 08:28:02;;;;;;;0.00;0.00;;;-1.40;99.90;;;;;;4992452;28;20206;-70
2023/01/21 08:30:27;;;;;;;0.00;0.00;;;-1.30;99.90;;;;;;4993699;28;20179;-70
2023/01/21 08:32:53;;;;;;;0.00;0.00;;;-1.30;99.90;;;;;;5011695;28;20194;-70
2023/01/21 08:35:19;;;;;;;0.20;0.20;;;-1.20;99.90;;;;;;4996481;28;20218;-70
2023/01/21 08:37:44;;;;;;;0.10;0.10;;;-1.20;99.90;;;;;;4996445;28;20175;-73
2023/01/21 08:40:10;;;;;;;0.00;0.00;;;-1.10;99.90;;;;;;4996533;28;20607;-73
2023/01/21 08:42:36;;;;;;;0.73;0.73;;;-1.00;99.90;;;;;;4999016;28;20176;-71
2023/01/21 08:45:02;;;;;;;0.00;0.00;;;-0.90;99.90;;;;;;5003992;28;20266;-71
2023/01/21 08:47:27;;;;;;;0.03;0.03;;;-0.90;99.90;;;;;;5016011;28;20585;-70
2023/01/21 08:49:53;;;;;;;0.00;0.00;;;-0.80;99.90;;;;;;5007905;28;20190;-70
2023/01/21 08:52:19;;;;;;;0.37;0.37;;;-0.80;99.90;;;;;;5015867;28;20171;-71
2023/01/21 08:54:45;;;;;;;0.00;0.00;;;-0.70;99.90;;;;;;5015571;28;20230;-70
2023/01/21 08:57:11;;;;;;;0.00;0.00;;;-0.60;99.90;;;;;;5021164;28;20174;-72
2023/01/21 08:59:36;;;;;;;0.10;0.10;;;-0.50;99.90;;;;;;5035327;28;20204;-72
2023/01/21 09:02:02;;;;;;;0.10;0.10;;;-0.40;99.90;;;;;;5035283;28;20185;-72
2023/01/21 09:04:27;;;;;;;0.00;0.00;;;-0.20;99.90;;;;;;5035388;28;20178;-71
2023/01/21 09:06:53;;;;;;;0.00;0.00;;;-0.10;99.90;;;;;;5035226;28;20208;-71
2023/01/21 09:09:18;;;;;;;0.50;0.50;;;-0.10;99.90;;;;;;5019744;28;20269;-71
2023/01/21 09:11:44;;;;;;;0.10;0.10;;;-0.10;99.90;;;;;;5015419;28;20262;-71
2023/01/21 09:14:10;;;;;;;0.00;0.00;;;0.00;99.90;;;;;;5014799;28;20309;-71
2023/01/21 09:16:36;;;;;;;0.20;0.20;;;0.10;99.90;;;;;;5014967;28;20219;-71
2023/01/21 09:19:01;;;;;;;0.00;0.00;;;0.20;99.90;;;;;;5013467;28;20195;-72
2023/01/21 09:21:28;;;;;;;0.20;0.20;;;0.30;99.90;;;;;;5014989;28;20178;-71
2023/01/21 09:23:54;;;;;;;0.00;0.00;;;0.40;99.90;;;;;;5013245;28;20676;-72
2023/01/21 09:26:21;;;;;;;0.00;0.00;;;0.50;99.90;;;;;;5014950;28;20256;-72
2023/01/21 09:28:52;;;;;;;0.00;0.00;;;0.50;99.90;;;;;;5015175;28;20206;-72
2023/01/21 09:31:20;;;;;;;0.00;0.00;;;0.60;99.90;;;;;;5019750;28;20649;-72
2023/01/21 09:33:49;;;;;;;0.00;0.00;;;0.70;99.90;;;;;;5013524;28;20219;-69
2023/01/21 09:36:18;;;;;;;0.33;0.20;;;0.70;99.90;;;;;;5014063;28;20193;-68
2023/01/21 09:38:45;;;;;;;0.22;0.22;;;0.70;99.90;;;;;;5014264;28;20218;-68
2023/01/21 09:41:16;;;;;;;0.10;0.10;;;0.80;99.90;;;;;;5012134;28;20280;-70
2023/01/21 09:43:47;;;;;;;0.00;0.00;;;0.80;99.90;;;;;;5014068;28;20191;-69
2023/01/21 09:46:26;;;;;;;0.00;0.00;;;0.80;99.90;;;;;;5014623;28;20646;-69
2023/01/21 09:48:53;;;;;;;0.00;0.00;;;0.90;99.90;;;;;;5014947;28;20183;-69
2023/01/21 09:51:24;;;;;;;0.00;0.00;;;1.00;99.90;;;;;;4996512;28;20244;-69
2023/01/21 09:53:53;;;;;;;0.00;0.00;;;1.00;99.90;;;;;;5014366;28;20694;-69
2023/01/21 09:56:29;;;;;;;0.00;0.00;;;1.00;99.90;;;;;;5014739;28;20178;-69
2023/01/21 09:59:06;;;;;;;0.05;0.05;;;1.00;99.90;;;;;;5013304;28;20190;-69
2023/01/21 10:01:35;;;;;;;0.00;0.00;;;1.10;99.90;;;;;;5012538;28;20190;-69
2023/01/21 10:04:03;;;;;;;0.07;0.07;;;1.10;99.90;;;;;;5014006;28;20535;-69
2023/01/21 10:06:50;;;;;;;0.00;0.00;;;1.10;99.90;;;;;;5015105;28;20265;-69
2023/01/21 10:09:24;;;;;;;0.00;0.00;;;1.10;99.90;;;;;;5014328;28;20182;-70
2023/01/21 10:12:15;;;;;;;0.00;0.00;;;1.10;99.90;;;;;;5013586;28;20213;-69
2023/01/21 10:15:05;;;;;;;0.30;0.30;;;1.20;99.90;;;;;;5013583;28;20349;-69
2023/01/21 10:18:08;;;;;;;0.00;0.00;;;1.20;99.90;;;;;;5009611;28;20213;-69
2023/01/21 10:20:52;;;;;;;0.00;0.00;;;1.20;99.90;;;;;;5013360;28;20187;-69
2023/01/21 10:23:27;;;;;;;0.00;0.00;;;1.20;99.90;;;;;;5012064;28;20594;-69
2023/01/21 10:25:54;;;;;;;0.30;0.30;;;1.20;99.90;;;;;;5009402;28;20178;-69
2023/01/21 10:28:26;;;;;;;0.00;0.00;;;1.20;99.90;;;;;;5012694;28;20194;-69
2023/01/21 10:30:59;;;;;;;0.00;0.00;;;1.30;99.90;;;;;;4993837;28;20267;-69
2023/01/21 10:33:26;;;;;;;0.00;0.00;;;1.30;99.90;;;;;;5011303;28;20218;-69
2023/01/21 10:36:08;;;;;;;0.00;0.00;;;1.40;99.90;;;;;;5013597;28;20684;-69
2023/01/21 10:39:00;;;;;;;0.00;0.00;;;1.40;99.90;;;;;;5013950;28;20175;-69
2023/01/21 10:41:44;;;;;;;0.00;0.00;;;1.50;99.90;;;;;;4990765;28;20230;-70
2023/01/21 10:44:44;;;;;;;0.00;0.00;;;1.50;99.90;;;;;;5013619;28;20229;-69
2023/01/21 10:47:33;;;;;;;0.10;0.10;;;1.60;99.90;;;;;;5013729;28;20179;-69
2023/01/21 10:50:03;;;;;;;0.55;0.45;;;1.60;99.90;;;;;;5013636;28;20584;-69
2023/01/21 10:52:44;;;;;;;0.00;0.00;;;1.60;99.90;;;;;;5013552;28;20190;-70
2023/01/21 10:55:37;;;;;;;0.00;0.00;;;1.60;99.90;;;;;;5013309;28;20219;-69
2023/01/21 10:58:18;;;;;;;0.00;0.00;;;1.50;99.90;;;;;;5013435;28;20189;-70
2023/01/21 11:00:47;;;;;;;0.10;0.10;;;1.50;99.90;;;;;;5013378;28;20175;-69
2023/01/21 11:03:18;;;;;;;0.13;0.13;;;1.60;99.90;;;;;;5013421;28;20183;-70
2023/01/21 11:05:44;;;;;;;0.00;0.00;;;1.60;99.90;;;;;;5013287;28;20296;-69
2023/01/21 11:08:19;;;;;;;0.00;0.00;;;1.60;99.90;;;;;;4995697;28;20171;-70
2023/01/21 11:10:48;;;;;;;0.00;0.00;;;1.70;99.90;;;;;;5013356;28;20621;-69
2023/01/21 11:13:13;;;;;;;0.00;0.00;;;1.60;99.90;;;;;;5013206;28;20641;-70
2023/01/21 11:15:45;;;;;;;0.00;0.00;;;1.70;99.90;;;;;;5012934;28;20237;-70
2023/01/21 11:18:29;;;;;;;0.20;0.20;;;1.70;99.90;;;;;;5013226;28;20171;-69
2023/01/21 11:21:01;;;;;;;0.00;0.00;;;1.70;99.90;;;;;;5013014;28;20545;-69
2023/01/21 11:23:38;;;;;;;0.47;0.47;;;1.70;99.90;;;;;;5012895;28;20233;-69
2023/01/21 11:26:19;;;;;;;0.30;0.30;;;1.60;99.90;;;;;;5012774;28;20179;-69
2023/01/21 11:28:45;;;;;;;0.00;0.00;;;1.60;99.90;;;;;;5013080;28;20254;-70
2023/01/21 11:31:20;;;;;;;0.00;0.00;;;1.50;99.90;;;;;;5012854;28;20194;-69
2023/01/21 11:33:46;;;;;;;0.10;0.10;;;1.40;99.90;;;;;;5012761;28;20264;-69
2023/01/21 11:36:13;;;;;;;0.10;0.10;;;1.40;99.90;;;;;;5013076;28;20214;-69
2023/01/21 11:38:39;;;;;;;0.00;0.00;;;1.40;99.90;;;;;;5012860;28;20183;-69
2023/01/21 11:41:10;;;;;;;0.00;0.00;;;1.40;99.90;;;;;;5012767;28;20249;-69
2023/01/21 11:43:45;;;;;;;0.05;0.05;;;1.40;99.90;;;;;;5012755;28;20708;-68
2023/01/21 11:46:38;;;;;;;0.33;0.33;;;1.30;99.90;;;;;;5011817;28;20213;-69
2023/01/21 11:49:06;;;;;;;0.00;0.00;;;1.30;99.90;;;;;;5009307;28;20229;-69
2023/01/21 11:51:40;;;;;;;0.00;0.00;;;1.10;99.90;;;;;;5012166;28;20186;-69
2023/01/21 11:54:10;;;;;;;0.00;0.00;;;1.10;99.90;;;;;;5011382;28;20218;-70
2023/01/21 11:56:36;;;;;;;0.00;0.00;;;1.00;99.90;;;;;;5007765;28;20183;-73
2023/01/21 11:59:30;;;;;;;0.40;0.40;;;0.90;99.90;;;;;;5011745;28;20273;-80
2023/01/21 12:02:04;;;;;;;0.00;0.00;;;0.80;99.90;;;;;;5011519;28;20190;-77
2023/01/21 12:04:31;;;;;;;0.00;0.00;;;0.70;99.90;;;;;;4998404;28;20182;-77
2023/01/21 12:06:59;;;;;;;0.00;0.00;;;0.70;99.90;;;;;;5007789;28;20647;-75
2023/01/21 12:09:27;;;;;;;0.00;0.00;;;0.60;99.90;;;;;;4996354;28;20186;-76
2023/01/21 12:12:21;;;;;;;0.00;0.00;;;0.60;99.90;;;;;;4994953;28;20668;-75
2023/01/21 12:14:53;;;;;;;0.00;0.00;;;0.50;99.90;;;;;;4994170;28;20218;-73
2023/01/21 12:17:53;;;;;;;0.20;0.20;;;0.50;99.90;;;;;;5011536;28;20187;-74
2023/01/21 12:20:46;;;;;;;0.13;0.13;;;0.50;99.90;;;;;;5003446;28;20179;-75
2023/01/21 12:23:40;;;;;;;0.00;0.00;;;0.50;99.90;;;;;;5011502;28;20265;-75
2023/01/21 12:26:11;;;;;;;0.07;0.07;;;0.60;99.90;;;;;;5010725;28;20182;-77
2023/01/21 12:29:20;;;;;;;0.20;0.20;;;0.60;99.90;;;;;;5011487;28;20195;-77
2023/01/21 12:32:00;;;;;;;0.10;0.10;;;0.60;99.90;;;;;;4977622;28;20190;-78
2023/01/21 12:34:40;;;;;;;1.23;1.23;;;0.70;99.90;;;;;;5011163;28;20301;-76
2023/01/21 12:37:35;;;;;;;0.00;0.00;;;0.70;99.90;;;;;;5011339;28;20205;-78
2023/01/21 12:40:29;;;;;;;0.00;0.00;;;0.70;99.90;;;;;;5007621;28;20293;-77
2023/01/21 12:42:58;;;;;;;0.00;0.00;;;0.80;99.90;;;;;;4988249;28;20194;-77
2023/01/21 12:45:34;;;;;;;0.00;0.00;;;0.70;99.90;;;;;;5011297;28;20221;-78
2023/01/21 12:48:17;;;;;;;0.00;0.00;;;0.70;99.90;;;;;;5010713;28;20679;-77
2023/01/21 12:50:48;;;;;;;0.10;0.10;;;0.70;99.90;;;;;;5001967;28;20183;-78
2023/01/21 12:53:23;;;;;;;0.20;0.20;;;0.70;99.90;;;;;;5010197;28;20186;-77
2023/01/21 12:56:27;;;;;;;0.13;0.13;;;0.70;99.90;;;;;;5011159;28;20224;-78
2023/01/21 12:58:54;;;;;;;0.00;0.00;;;0.60;99.90;;;;;;5004555;28;20226;-78
2023/01/21 13:01:56;;;;;;;0.00;0.00;;;0.60;99.90;;;;;;5022437;28;20190;-77
2023/01/21 13:04:43;;;;;;;0.00;0.00;;;0.60;99.90;;;;;;4949453;28;20185;-77
2023/01/21 13:07:49;;;;;;;0.03;0.03;;;0.60;99.90;;;;;;5003337;28;20195;-78
2023/01/21 13:10:23;;;;;;;0.00;0.00;;;0.60;99.90;;;;;;4976510;28;20210;-77
2023/01/21 13:12:58;;;;;;;0.10;0.10;;;0.60;99.90;;;;;;5011664;28;20186;-76